Time;durP1;ratioP1;P1;durP2;ratioP2;P2;SDS_P1;SDS_P2;PMS_P1;PMS_P2;Temp;Humidity;BMP_temperature;BMP_pressure;BME280_temperature;BME280_humidity;BME280_pressure;Samples;Min_cycle;Max_cycle;Signal;HPM_P1;HPM_P2
2023/01/07 00:00:00;;;;;;;1.48;1.20;;;;;;;10.72;73.75;100030.69;345149;28;2264;-71
2023/01/07 00:00:13;;;;;;;1.30;1.17;;;;;;;10.76;73.59;100037.53;346158;28;1816;-69
2023/01/07 00:00:25;;;;;;;1.40;1.10;;;;;;;10.81;73.38;100031.38;347428;28;1341;-69
2023/01/07 00:00:37;;;;;;;1.35;1.00;;;;;;;10.83;73.40;100029.59;345878;28;1194;-70
2023/01/07 00:00:49;;;;;;;1.48;1.00;;;;;;;10.87;73.05;100033.81;345397;28;1668;-74
2023/01/07 00:01:05;;;;;;;1.70;1.00;;;;;;;10.88;73.40;100028.53;345272;28;1822;-70
2023/01/07 00:01:25;;;;;;;1.58;0.98;;;;;;;10.93;73.13;100031.03;346121;28;1369;-73
2023/01/07 00:01:40;;;;;;;1.50;0.90;;;;;;;10.94;72.44;100037.94;346120;28;1098;-74
2023/01/07 00:01:52;;;;;;;1.70;1.00;;;;;;;10.97;72.53;100030.06;346109;28;1081;-69
2023/01/07 00:02:04;;;;;;;1.40;0.90;;;;;;;11.00;72.46;100032.56;346428;28;1069;-69
2023/01/07 00:02:16;;;;;;;1.23;0.90;;;;;;;11.00;72.43;100028.19;344745;28;1223;-69
2023/01/07 00:02:28;;;;;;;1.10;0.93;;;;;;;11.03;72.46;100036.81;344969;28;1075;-69
2023/01/07 00:02:40;;;;;;;1.10;0.90;;;;;;;11.05;71.90;100030.69;344627;28;1096;-69
2023/01/07 00:02:52;;;;;;;0.95;0.80;;;;;;;11.07;71.94;100031.50;344320;28;2181;-70
2023/01/07 00:03:04;;;;;;;0.98;0.73;;;;;;;11.11;72.00;100030.50;344723;28;1762;-69
2023/01/07 00:03:16;;;;;;;1.63;0.80;;;;;;;11.14;71.56;100032.16;344769;28;1194;-70
2023/01/07 00:03:29;;;;;;;1.50;0.80;;;;;;;11.14;71.71;100030.41;345226;28;1261;-69
2023/01/07 00:03:42;;;;;;;1.95;0.90;;;;;;;11.16;71.73;100030.38;344888;28;1159;-69
2023/01/07 00:03:57;;;;;;;2.38;0.82;;;;;;;11.15;72.25;100036.47;344660;28;1273;-70
2023/01/07 00:04:12;;;;;;;1.83;0.73;;;;;;;11.12;72.33;100036.56;343560;28;1275;-69
2023/01/07 00:04:24;;;;;;;0.80;0.60;;;;;;;11.13;72.51;100033.91;344429;28;1256;-70
2023/01/07 00:04:36;;;;;;;0.77;0.70;;;;;;;11.13;72.22;100028.72;343478;28;1384;-70
2023/01/07 00:04:49;;;;;;;0.85;0.80;;;;;;;11.13;72.35;100028.72;342765;28;1866;-70
2023/01/07 00:05:01;;;;;;;1.02;0.80;;;;;;;11.12;72.88;100029.59;342241;28;1160;-69
2023/01/07 00:05:16;;;;;;;1.15;0.73;;;;;;;11.05;72.60;100028.09;342108;28;1032;-70
2023/01/07 00:05:28;;;;;;;1.25;0.80;;;;;;;11.03;72.68;100034.19;343307;28;1419;-70
2023/01/07 00:05:40;;;;;;;1.40;0.85;;;;;;;10.98;72.38;100029.13;343557;28;1187;-71
2023/01/07 00:05:59;;;;;;;1.20;0.88;;;;;;;10.90;72.83;100025.91;342882;28;1817;-72
2023/01/07 00:06:14;;;;;;;0.85;0.77;;;;;;;10.87;72.84;100028.59;342887;28;1068;-69
2023/01/07 00:06:29;;;;;;;1.23;0.70;;;;;;;10.91;73.04;100027.63;342883;28;1651;-70
2023/01/07 00:06:43;;;;;;;1.40;0.90;;;;;;;10.89;72.77;100025.06;344549;28;1042;-70
2023/01/07 00:06:55;;;;;;;1.00;0.90;;;;;;;10.91;72.95;100028.47;344783;28;1035;-71
2023/01/07 00:07:07;;;;;;;1.02;0.85;;;;;;;10.92;73.03;100034.50;345494;28;1461;-69
2023/01/07 00:07:22;;;;;;;1.30;0.80;;;;;;;10.90;72.91;100025.91;345385;28;1272;-69
2023/01/07 00:07:34;;;;;;;1.88;0.80;;;;;;;10.87;72.84;100032.06;344921;28;1073;-70
2023/01/07 00:07:46;;;;;;;1.75;0.77;;;;;;;10.92;72.54;100024.13;344543;28;1081;-70
2023/01/07 00:08:01;;;;;;;1.13;0.75;;;;;;;10.95;72.79;100026.66;344125;28;1552;-69
2023/01/07 00:08:13;;;;;;;1.13;0.75;;;;;;;10.98;72.93;100027.38;344135;28;1776;-73
2023/01/07 00:08:28;;;;;;;1.33;0.80;;;;;;;11.02;72.77;100028.16;344226;28;1716;-72
2023/01/07 00:08:43;;;;;;;1.60;1.00;;;;;;;11.06;72.00;100029.78;345925;28;1692;-69
2023/01/07 00:08:56;;;;;;;1.17;0.90;;;;;;;11.10;72.26;100028.78;346189;28;1025;-71
2023/01/07 00:09:15;;;;;;;1.15;0.80;;;;;;;11.14;72.12;100024.34;345119;28;1201;-69
2023/01/07 00:09:28;;;;;;;1.13;0.90;;;;;;;11.16;71.96;100028.59;345140;28;1055;-70
2023/01/07 00:09:40;;;;;;;1.00;0.90;;;;;;;11.19;71.97;100033.75;344728;28;1079;-69
2023/01/07 00:09:52;;;;;;;0.98;0.80;;;;;;;11.20;71.37;100030.22;344829;28;1076;-69
2023/01/07 00:10:04;;;;;;;1.02;0.70;;;;;;;11.20;71.13;100024.19;344804;28;1179;-69
2023/01/07 00:10:19;;;;;;;1.10;0.80;;;;;;;11.20;71.62;100019.81;344775;28;1662;-69
2023/01/07 00:10:32;;;;;;;1.02;0.80;;;;;;;11.23;71.81;100018.91;343525;28;2250;-70
2023/01/07 00:10:44;;;;;;;1.10;0.70;;;;;;;11.25;71.27;100018.81;344977;28;1122;-69
2023/01/07 00:11:00;;;;;;;0.93;0.65;;;;;;;11.27;71.10;100027.44;343446;28;1355;-70
2023/01/07 00:11:18;;;;;;;0.80;0.70;;;;;;;11.29;71.48;100029.13;343557;28;1213;-69
2023/01/07 00:11:33;;;;;;;0.85;0.70;;;;;;;11.32;71.48;100026.41;343631;28;2215;-69
2023/01/07 00:11:45;;;;;;;0.82;0.70;;;;;;;11.35;70.81;100028.94;344725;28;1011;-73
2023/01/07 00:11:57;;;;;;;0.80;0.70;;;;;;;11.37;70.98;100026.28;345118;28;1258;-71
2023/01/07 00:12:09;;;;;;;0.82;0.70;;;;;;;11.39;71.05;100027.09;346215;28;1145;-71
2023/01/07 00:12:21;;;;;;;0.90;0.70;;;;;;;11.42;70.98;100016.59;346179;28;1372;-72
2023/01/07 00:12:33;;;;;;;0.88;0.70;;;;;;;11.45;70.99;100023.44;344690;28;1127;-72
2023/01/07 00:12:45;;;;;;;0.80;0.70;;;;;;;11.46;71.07;100019.94;344985;28;1011;-72
2023/01/07 00:12:57;;;;;;;1.08;0.70;;;;;;;11.49;70.56;100020.72;344867;28;1098;-72
2023/01/07 00:13:09;;;;;;;1.30;0.80;;;;;;;11.50;70.45;100021.56;344206;28;2145;-70
2023/01/07 00:13:21;;;;;;;1.63;0.85;;;;;;;11.51;70.37;100018.91;344432;28;1174;-70
2023/01/07 00:13:34;;;;;;;2.25;0.80;;;;;;;11.54;70.33;100024.00;343621;28;1633;-70
2023/01/07 00:13:50;;;;;;;1.60;0.70;;;;;;;11.56;70.36;100017.00;344779;28;1084;-69
2023/01/07 00:14:04;;;;;;;0.73;0.60;;;;;;;11.58;70.64;100020.41;344097;28;1318;-70
2023/01/07 00:14:16;;;;;;;1.10;0.80;;;;;;;11.60;70.15;100023.81;343369;28;1255;-71
2023/01/07 00:14:28;;;;;;;1.00;0.80;;;;;;;11.62;70.10;100018.59;344811;28;1170;-71
2023/01/07 00:14:40;;;;;;;0.82;0.80;;;;;;;11.63;69.67;100016.81;345611;28;1118;-73
2023/01/07 00:14:52;;;;;;;0.82;0.70;;;;;;;11.64;69.60;100021.16;346166;28;1115;-71
2023/01/07 00:15:04;;;;;;;0.73;0.70;;;;;;;11.62;70.50;100025.53;345904;28;1478;-72
2023/01/07 00:15:16;;;;;;;0.73;0.70;;;;;;;11.53;70.87;100017.13;345515;28;1362;-70
2023/01/07 00:15:28;;;;;;;0.65;0.60;;;;;;;11.49;71.44;100025.94;344879;28;1188;-69
2023/01/07 00:15:40;;;;;;;0.80;0.68;;;;;;;11.43;71.72;100018.31;345047;28;1284;-70
2023/01/07 00:16:00;;;;;;;0.75;0.60;;;;;;;11.40;72.02;100015.78;346316;28;1085;-69
2023/01/07 00:16:14;;;;;;;0.60;0.60;;;;;;;11.43;71.91;100017.44;346168;28;1074;-70
2023/01/07 00:16:29;;;;;;;0.82;0.70;;;;;;;11.44;71.89;100022.59;344495;28;1478;-71
2023/01/07 00:16:41;;;;;;;1.10;0.70;;;;;;;11.38;71.38;100017.56;343020;28;1136;-69
2023/01/07 00:16:53;;;;;;;0.90;0.60;;;;;;;11.35;71.37;100022.88;343445;28;1179;-69
2023/01/07 00:17:05;;;;;;;1.17;0.70;;;;;;;11.30;71.64;100016.97;343515;28;1051;-69
2023/01/07 00:17:17;;;;;;;1.60;0.73;;;;;;;11.23;71.57;100015.41;343224;28;1354;-70
2023/01/07 00:17:29;;;;;;;1.17;0.70;;;;;;;11.18;72.10;100015.56;344100;28;1967;-69
2023/01/07 00:17:41;;;;;;;0.77;0.60;;;;;;;11.18;72.08;100011.19;344916;28;1202;-69
2023/01/07 00:17:53;;;;;;;0.70;0.60;;;;;;;11.17;71.75;100017.31;345202;28;801;-69
2023/01/07 00:18:05;;;;;;;0.90;0.63;;;;;;;11.12;72.26;100021.78;344694;28;1693;-70
2023/01/07 00:18:17;;;;;;;0.93;0.68;;;;;;;11.04;72.27;100013.34;344186;28;1825;-70
2023/01/07 00:18:29;;;;;;;2.05;0.80;;;;;;;11.00;72.61;100016.94;344391;28;1075;-70
2023/01/07 00:18:43;;;;;;;2.40;0.80;;;;;;;10.94;72.47;100011.91;345118;28;1132;-72
2023/01/07 00:18:56;;;;;;;1.33;0.70;;;;;;;10.94;72.40;100017.13;345589;28;1698;-69
2023/01/07 00:19:13;;;;;;;1.10;0.77;;;;;;;10.93;71.71;100018.03;344947;28;1089;-69
2023/01/07 00:19:25;;;;;;;1.33;0.77;;;;;;;10.96;71.47;100016.16;344735;28;1355;-70
2023/01/07 00:19:37;;;;;;;0.80;0.70;;;;;;;10.90;71.38;100005.09;345055;28;1365;-69
2023/01/07 00:19:49;;;;;;;0.60;0.60;;;;;;;10.90;71.17;100010.31;343602;28;1449;-69
2023/01/07 00:20:01;;;;;;;0.57;0.50;;;;;;;10.92;71.25;100009.34;343362;28;1198;-69
2023/01/07 00:20:13;;;;;;;0.57;0.57;;;;;;;10.90;71.15;100015.50;343476;28;1083;-70
2023/01/07 00:20:25;;;;;;;0.70;0.60;;;;;;;10.88;71.28;100012.09;343140;28;1143;-69
2023/01/07 00:20:37;;;;;;;0.80;0.70;;;;;;;10.86;70.92;100014.72;343692;28;1327;-69
2023/01/07 00:20:49;;;;;;;1.10;0.75;;;;;;;10.87;70.44;100018.22;343575;28;1265;-69
2023/01/07 00:21:05;;;;;;;1.02;0.70;;;;;;;10.79;70.10;100016.66;343596;28;1256;-69
2023/01/07 00:21:18;;;;;;;1.10;0.65;;;;;;;10.75;70.40;100011.59;344663;28;1191;-70
2023/01/07 00:21:31;;;;;;;1.08;0.60;;;;;;;10.72;70.13;100009.91;344281;28;1618;-70
2023/01/07 00:21:43;;;;;;;0.70;0.70;;;;;;;10.72;70.46;100011.66;344363;28;2277;-70
2023/01/07 00:21:55;;;;;;;0.70;0.70;;;;;;;10.71;71.26;100005.63;345413;28;1582;-72
2023/01/07 00:22:10;;;;;;;0.77;0.70;;;;;;;10.68;72.83;100005.69;346142;28;1329;-69
2023/01/07 00:22:23;;;;;;;0.70;0.60;;;;;;;10.71;72.58;100013.41;345891;28;1285;-70
2023/01/07 00:22:35;;;;;;;0.60;0.60;;;;;;;10.73;72.44;100014.22;346251;28;1339;-70
2023/01/07 00:22:49;;;;;;;0.68;0.60;;;;;;;10.78;72.63;100012.38;346046;28;1159;-70
2023/01/07 00:23:01;;;;;;;0.75;0.60;;;;;;;10.82;72.33;100007.06;346672;28;795;-75
2023/01/07 00:23:13;;;;;;;0.70;0.60;;;;;;;10.86;72.37;100008.69;346024;28;1063;-71
2023/01/07 00:23:26;;;;;;;1.05;0.70;;;;;;;10.88;72.45;100012.94;344748;28;1318;-70
2023/01/07 00:23:39;;;;;;;1.30;0.70;;;;;;;10.91;71.98;100005.06;345065;28;1406;-70
2023/01/07 00:23:57;;;;;;;1.30;0.70;;;;;;;10.96;71.84;100004.91;345968;28;1636;-69
2023/01/07 00:24:10;;;;;;;1.27;0.70;;;;;;;11.00;71.65;100007.38;346273;28;1063;-70
2023/01/07 00:24:22;;;;;;;1.00;0.60;;;;;;;11.03;71.57;100006.47;345393;28;1617;-70
2023/01/07 00:24:34;;;;;;;0.63;0.60;;;;;;;11.06;71.70;100001.16;346285;28;1261;-70
2023/01/07 00:24:46;;;;;;;0.82;0.60;;;;;;;11.10;71.47;100004.53;345861;28;1020;-72
2023/01/07 00:24:58;;;;;;;1.00;0.60;;;;;;;11.13;71.68;100004.44;346132;28;1202;-70
2023/01/07 00:25:10;;;;;;;0.88;0.60;;;;;;;11.16;71.15;100004.34;346230;28;1026;-70
2023/01/07 00:25:22;;;;;;;0.70;0.60;;;;;;;11.18;71.32;100011.19;344774;28;1347;-70
2023/01/07 00:25:34;;;;;;;0.80;0.70;;;;;;;11.22;70.94;100011.13;344659;28;1031;-71
2023/01/07 00:25:46;;;;;;;0.63;0.63;;;;;;;11.23;71.16;100002.41;344606;28;1642;-72
2023/01/07 00:26:05;;;;;;;1.23;0.60;;;;;;;11.26;70.70;100007.53;344958;28;1058;-72
2023/01/07 00:26:20;;;;;;;2.00;0.60;;;;;;;11.29;71.00;100003.09;345958;28;1207;-69
2023/01/07 00:26:35;;;;;;;1.50;0.70;;;;;;;11.33;70.85;100001.25;345236;28;1358;-70
2023/01/07 00:26:47;;;;;;;0.93;0.73;;;;;;;11.37;70.83;100005.47;344629;28;1052;-69
2023/01/07 00:26:59;;;;;;;1.00;0.70;;;;;;;11.35;71.40;100007.28;344912;28;1075;-69
2023/01/07 00:27:11;;;;;;;0.90;0.63;;;;;;;11.30;71.92;100003.94;344988;28;1300;-70
2023/01/07 00:27:24;;;;;;;0.80;0.60;;;;;;;11.28;72.15;100003.13;345246;28;1354;-70
2023/01/07 00:27:36;;;;;;;0.70;0.60;;;;;;;11.26;71.94;100010.13;346081;28;1031;-71
2023/01/07 00:27:48;;;;;;;0.70;0.60;;;;;;;11.22;72.61;100000.72;344803;28;855;-72
2023/01/07 00:28:00;;;;;;;0.70;0.60;;;;;;;11.25;72.27;99995.41;343389;28;1906;-71
2023/01/07 00:28:15;;;;;;;1.17;0.70;;;;;;;11.26;72.18;100002.31;344480;28;1532;-69
2023/01/07 00:28:27;;;;;;;1.35;0.77;;;;;;;11.18;72.11;100006.00;343549;28;1186;-69
2023/01/07 00:28:42;;;;;;;0.70;0.60;;;;;;;11.17;71.82;100004.31;344271;28;1566;-69
2023/01/07 00:28:54;;;;;;;0.60;0.60;;;;;;;11.16;72.30;100007.78;343920;28;812;-72
2023/01/07 00:29:06;;;;;;;1.40;0.70;;;;;;;11.11;72.00;100006.25;344734;28;1157;-70
2023/01/07 00:29:19;;;;;;;1.60;0.70;;;;;;;11.04;72.13;99999.50;343999;28;1333;-72
2023/01/07 00:29:31;;;;;;;1.23;0.70;;;;;;;11.03;72.11;99995.19;343485;28;1285;-69
2023/01/07 00:29:43;;;;;;;1.65;0.70;;;;;;;10.90;72.60;99994.69;343541;28;1732;-70
2023/01/07 00:29:55;;;;;;;1.83;0.80;;;;;;;10.87;72.52;99992.19;344815;28;1226;-70
2023/01/07 00:30:08;;;;;;;2.17;0.77;;;;;;;10.83;72.95;99999.22;344788;28;1239;-69
2023/01/07 00:30:20;;;;;;;2.50;0.70;;;;;;;10.75;73.08;100001.19;344789;28;1443;-70
2023/01/07 00:30:32;;;;;;;1.80;0.68;;;;;;;10.70;72.57;99998.69;344905;28;1249;-71
2023/01/07 00:30:44;;;;;;;1.33;0.70;;;;;;;10.67;73.08;99997.94;344839;28;1103;-72
2023/01/07 00:31:00;;;;;;;1.45;0.80;;;;;;;10.67;72.66;99993.59;344837;28;1520;-72
2023/01/07 00:31:33;;;;;;;1.33;0.70;;;;;;;10.70;72.12;99998.69;344795;28;1156;-69
2023/01/07 00:31:45;;;;;;;0.77;0.60;;;;;;;10.69;71.72;99997.00;344359;28;2073;-70
2023/01/07 00:31:57;;;;;;;1.08;0.70;;;;;;;10.66;71.56;99997.06;345428;28;1560;-69
2023/01/07 00:32:09;;;;;;;1.25;0.70;;;;;;;10.65;71.10;99995.38;346171;28;1086;-69
2023/01/07 00:32:45;;;;;;;1.15;0.75;;;;;;;10.63;71.05;99991.97;344711;28;1362;-70
2023/01/07 00:33:03;;;;;;;1.38;0.70;;;;;;;10.55;71.48;99996.53;346119;28;1201;-70
2023/01/07 00:33:16;;;;;;;0.88;0.60;;;;;;;10.58;71.25;99994.72;346231;28;1153;-70
2023/01/07 00:33:29;;;;;;;0.60;0.60;;;;;;;10.58;71.65;99994.72;343909;28;787;-69
2023/01/07 00:34:14;;;;;;;0.75;0.60;;;;;;;10.73;72.21;99996.03;341993;28;1147;-69
2023/01/07 00:34:26;;;;;;;0.73;0.60;;;;;;;10.77;71.98;99997.66;343253;28;1664;-70
2023/01/07 00:34:29;;;;;;;0.60;0.60;;;;;;;10.63;72.13;99991.13;343517;28;1318;-71
2023/01/07 00:34:40;;;;;;;0.85;0.70;;;;;;;10.83;71.93;99998.38;345521;28;1741;-70
2023/01/07 00:34:52;;;;;;;0.80;0.70;;;;;;;10.87;71.75;99994.78;346199;28;1017;-70
2023/01/07 00:35:20;;;;;;;0.80;0.60;;;;;;;10.91;71.57;99991.22;345384;28;1642;-70
2023/01/07 00:35:35;;;;;;;0.60;0.50;;;;;;;10.98;71.42;99997.94;346279;28;1118;-72
2023/01/07 00:35:47;;;;;;;0.88;0.60;;;;;;;11.02;71.23;99985.69;346177;28;1004;-70
2023/01/07 00:36:03;;;;;;;1.20;0.70;;;;;;;11.04;71.47;99997.75;345985;28;1119;-70
2023/01/07 00:36:16;;;;;;;1.08;0.70;;;;;;;11.10;70.98;99992.38;344842;28;1266;-74
2023/01/07 00:36:31;;;;;;;1.20;0.68;;;;;;;11.14;71.08;99998.34;344443;28;1497;-70
2023/01/07 00:36:45;;;;;;;1.50;0.70;;;;;;;11.16;71.00;99992.19;343584;28;1021;-71
2023/01/07 00:37:48;;;;;;;1.02;0.68;;;;;;;11.20;71.48;99993.78;343482;28;1181;-72
2023/01/07 00:37:59;;;;;;;0.82;0.75;;;;;;;11.34;70.82;99992.53;344688;28;1180;-70
2023/01/07 00:38:11;;;;;;;0.90;0.70;;;;;;;11.37;70.97;100000.28;343307;28;1047;-71
2023/01/07 00:38:23;;;;;;;1.00;0.70;;;;;;;11.40;70.48;100000.16;346008;28;1297;-70
2023/01/07 00:38:35;;;;;;;0.77;0.70;;;;;;;11.41;70.19;99996.69;346109;28;1087;-71
2023/01/07 00:39:03;;;;;;;0.80;0.70;;;;;;;11.45;70.25;99992.19;345930;28;1040;-70
2023/01/07 00:39:18;;;;;;;0.90;0.60;;;;;;;11.46;70.03;99997.38;345940;28;1054;-71
2023/01/07 00:39:30;;;;;;;0.85;0.65;;;;;;;11.46;70.02;99988.72;345834;28;1673;-72
2023/01/07 00:39:42;;;;;;;0.75;0.68;;;;;;;11.48;70.07;99987.75;345241;28;1230;-72
2023/01/07 00:39:54;;;;;;;0.60;0.60;;;;;;;11.51;70.21;99998.09;344519;28;1050;-71
2023/01/07 00:40:06;;;;;;;0.60;0.60;;;;;;;11.52;69.71;99991.13;345514;28;1877;-71
2023/01/07 00:40:20;;;;;;;0.82;0.68;;;;;;;11.54;70.05;99992.78;345848;28;1349;-71
2023/01/07 00:40:32;;;;;;;0.80;0.70;;;;;;;11.55;69.70;99994.50;346033;28;1057;-71
2023/01/07 00:40:44;;;;;;;0.77;0.60;;;;;;;11.57;69.98;99992.69;345926;28;1478;-69
2023/01/07 00:40:56;;;;;;;1.20;0.70;;;;;;;11.58;69.85;99989.19;345759;28;1249;-70
2023/01/07 00:41:09;;;;;;;1.20;0.73;;;;;;;11.61;69.82;99990.84;346028;28;1051;-69
2023/01/07 00:41:21;;;;;;;1.05;0.70;;;;;;;11.62;69.72;99995.16;345461;28;2011;-71
2023/01/07 00:41:34;;;;;;;0.85;0.70;;;;;;;11.59;69.76;99990.91;344739;28;1080;-72
2023/01/07 00:43:03;;;;;;;1.20;0.80;;;;;;;11.62;70.04;99994.31;345654;28;2197;-70
2023/01/07 00:43:15;;;;;;;1.40;0.80;;;;;;;11.65;69.72;99984.66;343398;28;1055;-69
2023/01/07 00:43:27;;;;;;;1.25;0.80;;;;;;;11.67;69.82;99992.38;343842;28;1325;-71
2023/01/07 00:43:39;;;;;;;0.90;0.70;;;;;;;11.68;69.43;99992.34;344099;28;1906;-70
2023/01/07 00:43:52;;;;;;;0.90;0.70;;;;;;;11.65;69.61;99996.78;344495;28;1047;-70
2023/01/07 00:44:05;;;;;;;0.90;0.65;;;;;;;11.62;69.23;99992.53;344613;28;1103;-69
2023/01/07 00:44:17;;;;;;;0.88;0.70;;;;;;;11.65;69.26;99991.59;344369;28;1295;-70
2023/01/07 00:44:29;;;;;;;0.80;0.68;;;;;;;11.66;69.50;99991.53;344085;28;1619;-70
2023/01/07 00:44:41;;;;;;;1.40;0.75;;;;;;;11.67;68.87;99995.00;344185;28;1475;-73
2023/01/07 00:44:53;;;;;;;1.20;0.70;;;;;;;11.68;69.27;99988.91;344564;28;1275;-72
2023/01/07 00:45:06;;;;;;;1.02;0.70;;;;;;;11.70;69.45;99987.09;344792;28;1106;-72
2023/01/07 00:45:17;;;;;;;1.10;0.70;;;;;;;11.70;68.81;99992.31;345121;28;1370;-70
2023/01/07 00:45:35;;;;;;;1.15;0.70;;;;;;;11.68;69.35;99988.91;346014;28;1295;-71
2023/01/07 00:45:47;;;;;;;0.98;0.70;;;;;;;11.70;69.24;99989.69;346036;28;1055;-70
2023/01/07 00:45:59;;;;;;;1.58;0.70;;;;;;;11.73;69.43;99992.19;346077;28;1034;-71
2023/01/07 00:46:13;;;;;;;1.80;0.65;;;;;;;11.75;69.29;99987.78;346160;28;1329;-72
2023/01/07 00:46:25;;;;;;;1.77;0.80;;;;;;;11.75;69.40;99987.78;345884;28;1132;-71
2023/01/07 00:46:37;;;;;;;0.90;0.80;;;;;;;11.76;69.10;99986.91;346066;28;1107;-72
2023/01/07 00:46:49;;;;;;;0.80;0.70;;;;;;;11.78;69.24;99991.16;345968;28;1257;-72
2023/01/07 00:47:01;;;;;;;1.08;0.60;;;;;;;11.78;69.21;99985.09;345930;28;1054;-73
2023/01/07 00:47:13;;;;;;;1.30;0.60;;;;;;;11.78;69.50;99979.88;345831;28;1170;-70
2023/01/07 00:47:25;;;;;;;1.40;0.70;;;;;;;11.76;69.55;99984.28;345645;28;1260;-69
2023/01/07 00:47:37;;;;;;;0.90;0.70;;;;;;;11.78;69.35;99995.50;344677;28;1059;-70
2023/01/07 00:47:52;;;;;;;0.85;0.70;;;;;;;11.78;69.60;99995.50;344317;28;1287;-69
2023/01/07 00:48:04;;;;;;;1.15;0.82;;;;;;;11.78;69.30;99992.91;345751;28;1159;-71
2023/01/07 00:48:17;;;;;;;1.25;0.90;;;;;;;11.72;68.93;99985.28;345883;28;1408;-70
2023/01/07 00:48:29;;;;;;;0.93;0.80;;;;;;;11.73;69.00;99982.66;346096;28;1117;-71
2023/01/07 00:48:42;;;;;;;0.80;0.70;;;;;;;11.74;69.03;99984.34;345405;28;1660;-71
2023/01/07 00:48:54;;;;;;;0.80;0.70;;;;;;;11.74;68.90;99988.69;345943;28;1173;-70
2023/01/07 00:49:06;;;;;;;0.77;0.70;;;;;;;11.73;68.25;99984.38;345398;28;1711;-70
2023/01/07 00:49:18;;;;;;;0.75;0.60;;;;;;;11.72;68.57;99985.28;346013;28;1333;-71
2023/01/07 00:49:30;;;;;;;0.70;0.70;;;;;;;11.72;68.22;99985.28;345485;28;1820;-71
2023/01/07 00:49:42;;;;;;;1.70;0.77;;;;;;;11.72;68.54;99986.13;345842;28;1264;-72
2023/01/07 00:49:54;;;;;;;1.60;0.70;;;;;;;11.76;68.64;99976.47;345988;28;1200;-71
2023/01/07 00:50:06;;;;;;;0.82;0.63;;;;;;;11.78;68.63;99985.09;346266;28;1269;-70
2023/01/07 00:50:22;;;;;;;0.70;0.60;;;;;;;11.79;68.31;99981.56;346179;28;1332;-71
2023/01/07 00:50:37;;;;;;;0.77;0.68;;;;;;;11.81;68.73;99984.97;345318;28;1995;-70
2023/01/07 00:50:51;;;;;;;1.10;0.88;;;;;;;11.82;68.58;99976.28;345783;28;1738;-71
2023/01/07 00:51:04;;;;;;;1.00;0.85;;;;;;;11.83;68.34;99983.22;345920;28;844;-70
2023/01/07 00:51:19;;;;;;;0.80;0.70;;;;;;;11.85;68.32;99986.63;346005;28;1261;-69
2023/01/07 00:51:31;;;;;;;1.00;0.80;;;;;;;11.86;68.42;99983.09;346147;28;1046;-70
2023/01/07 00:51:43;;;;;;;1.00;0.80;;;;;;;11.87;68.39;99978.72;345997;28;1030;-70
2023/01/07 00:51:54;;;;;;;0.85;0.70;;;;;;;11.88;68.26;99981.28;345551;28;1633;-69
2023/01/07 00:52:06;;;;;;;0.88;0.60;;;;;;;11.90;68.31;99979.53;346066;28;1038;-70
2023/01/07 00:52:18;;;;;;;1.33;0.60;;;;;;;11.91;68.22;99983.84;345992;28;1291;-70
2023/01/07 00:52:30;;;;;;;1.33;0.70;;;;;;;11.92;68.07;99971.66;343771;28;6184;-71
2023/01/07 00:52:42;;;;;;;1.33;0.82;;;;;;;11.93;68.29;99979.44;345567;28;4613;-71
2023/01/07 00:52:55;;;;;;;1.00;0.80;;;;;;;11.95;68.30;99981.97;346354;28;1059;-72
2023/01/07 00:53:09;;;;;;;1.17;0.80;;;;;;;11.95;68.43;99977.63;345899;28;3006;-70
2023/01/07 00:53:21;;;;;;;1.00;0.80;;;;;;;11.97;68.23;99983.63;345728;28;1186;-70
2023/01/07 00:53:33;;;;;;;1.02;0.80;;;;;;;11.98;67.90;99985.31;344703;28;1019;-71
2023/01/07 00:53:46;;;;;;;0.98;0.70;;;;;;;11.98;67.97;99972.28;344572;28;1031;-70
2023/01/07 00:53:58;;;;;;;1.17;0.63;;;;;;;12.01;68.05;99978.31;344423;28;1073;-69
2023/01/07 00:54:10;;;;;;;1.73;0.73;;;;;;;12.02;67.77;99977.41;344951;28;1272;-71
2023/01/07 00:54:22;;;;;;;2.05;0.77;;;;;;;12.02;68.04;99975.66;344001;28;1623;-70
2023/01/07 00:54:36;;;;;;;1.73;0.70;;;;;;;11.99;67.72;99974.00;344685;28;1040;-72
2023/01/07 00:54:48;;;;;;;1.05;0.82;;;;;;;11.99;67.61;99976.63;344340;28;1107;-71
2023/01/07 00:55:00;;;;;;;1.13;0.90;;;;;;;12.01;67.94;99978.31;344804;28;1059;-71
2023/01/07 00:55:13;;;;;;;1.00;0.80;;;;;;;12.03;67.68;99976.50;345634;28;1708;-70
2023/01/07 00:55:27;;;;;;;1.13;0.70;;;;;;;12.03;67.62;99976.50;346181;28;1257;-70
2023/01/07 00:55:39;;;;;;;1.35;0.75;;;;;;;12.01;67.48;99970.50;346275;28;1082;-70
2023/01/07 00:55:51;;;;;;;1.95;1.02;;;;;;;12.01;67.50;99980.91;346043;28;1234;-70
2023/01/07 00:56:03;;;;;;;2.30;1.10;;;;;;;12.02;67.60;99980.03;345982;28;1119;-69
2023/01/07 00:56:17;;;;;;;1.80;1.08;;;;;;;12.01;67.60;99980.91;346094;28;1095;-70
2023/01/07 00:56:29;;;;;;;1.00;0.90;;;;;;;12.00;67.56;99969.66;344918;28;907;-70
2023/01/07 00:56:41;;;;;;;1.45;0.98;;;;;;;12.03;67.94;99976.50;344919;28;1074;-70
2023/01/07 00:56:53;;;;;;;1.40;0.90;;;;;;;12.01;67.48;99979.16;344748;28;1179;-70
2023/01/07 00:57:10;;;;;;;1.58;0.93;;;;;;;12.02;67.81;99977.41;344787;28;1127;-69
2023/01/07 00:57:22;;;;;;;1.30;0.90;;;;;;;12.03;67.54;99974.75;344516;28;1197;-71
2023/01/07 00:57:34;;;;;;;1.00;0.90;;;;;;;12.02;67.42;99978.25;345313;28;1192;-73
2023/01/07 00:57:46;;;;;;;1.13;0.90;;;;;;;11.97;68.20;99975.81;345705;28;1106;-70
2023/01/07 00:57:58;;;;;;;1.30;0.90;;;;;;;11.94;68.13;99972.47;344824;28;1940;-71
2023/01/07 00:58:16;;;;;;;1.30;0.90;;;;;;;11.92;68.02;99977.72;345861;28;1179;-70
2023/01/07 00:58:28;;;;;;;1.00;0.80;;;;;;;11.93;68.31;99971.63;346157;28;1304;-72
2023/01/07 00:58:40;;;;;;;1.10;0.80;;;;;;;11.95;68.31;99971.53;344910;28;1131;-71
2023/01/07 00:58:52;;;;;;;0.93;0.90;;;;;;;11.93;68.26;99969.00;344760;28;1381;-69
2023/01/07 00:59:04;;;;;;;1.33;1.02;;;;;;;11.91;68.41;99969.94;344788;28;926;-72
2023/01/07 00:59:16;;;;;;;1.70;1.10;;;;;;;11.91;68.43;99976.03;344611;28;1070;-73
2023/01/07 00:59:29;;;;;;;1.40;0.98;;;;;;;11.85;68.78;99973.59;345979;28;1131;-70
2023/01/07 00:59:40;;;;;;;0.85;0.85;;;;;;;11.76;69.31;99971.28;346142;28;1106;-71
2023/01/07 00:59:52;;;;;;;0.90;0.88;;;;;;;11.73;69.09;99979.16;345761;28;1677;-70
2023/01/07 01:00:05;;;;;;;1.02;0.82;;;;;;;11.72;68.96;99974.88;346075;28;1054;-71
2023/01/07 01:00:19;;;;;;;1.38;0.98;;;;;;;11.74;69.05;99973.06;345880;28;1324;-70
2023/01/07 01:00:32;;;;;;;1.60;1.10;;;;;;;11.75;69.00;99970.44;345855;28;1209;-69
2023/01/07 01:00:44;;;;;;;1.90;1.13;;;;;;;11.78;68.81;99974.69;345768;28;1997;-71
2023/01/07 01:00:58;;;;;;;1.80;1.10;;;;;;;11.80;68.93;99973.72;345550;28;1254;-72
2023/01/07 01:01:11;;;;;;;1.65;1.00;;;;;;;11.82;68.93;99976.28;346101;28;1075;-70
2023/01/07 01:01:23;;;;;;;1.00;1.00;;;;;;;11.84;68.99;99971.03;345298;28;1614;-72
2023/01/07 01:01:37;;;;;;;1.00;1.00;;;;;;;11.86;68.72;99971.84;346045;28;1734;-69
2023/01/07 01:01:49;;;;;;;1.00;0.90;;;;;;;11.87;68.67;99973.50;346111;28;1071;-71
2023/01/07 01:02:01;;;;;;;1.10;0.88;;;;;;;11.89;68.94;99972.63;345989;28;1267;-69
2023/01/07 01:02:13;;;;;;;1.13;0.90;;;;;;;11.91;68.86;99976.03;345345;28;1771;-71
2023/01/07 01:02:25;;;;;;;1.20;0.90;;;;;;;11.92;68.88;99966.44;345954;28;1338;-70
2023/01/07 01:02:39;;;;;;;1.30;0.80;;;;;;;11.92;68.85;99972.50;346567;28;788;-71
2023/01/07 01:02:52;;;;;;;1.17;0.90;;;;;;;11.92;68.51;99969.91;345475;28;1560;-70
2023/01/07 01:03:04;;;;;;;0.93;0.90;;;;;;;11.88;68.53;99965.66;345998;28;1601;-71
2023/01/07 01:03:16;;;;;;;1.10;1.00;;;;;;;11.83;68.89;99972.78;345979;28;1332;-70
2023/01/07 01:03:29;;;;;;;1.20;1.10;;;;;;;11.75;68.85;99969.56;345952;28;1780;-71
2023/01/07 01:03:42;;;;;;;1.20;1.10;;;;;;;11.71;69.27;99979.25;344300;28;1651;-70
2023/01/07 01:03:54;;;;;;;1.20;1.10;;;;;;;11.70;68.91;99976.69;344663;28;1113;-73
2023/01/07 01:04:07;;;;;;;1.60;1.50;;;;;;;11.73;68.85;99971.34;344361;28;1163;-69
2023/01/07 01:04:19;;;;;;;2.20;2.00;;;;;;;11.75;68.65;99974.75;344680;28;1361;-70
2023/01/07 01:04:31;;;;;;;2.92;2.58;;;;;;;11.67;68.96;99976.75;344791;28;1055;-71
2023/01/07 01:04:43;;;;;;;2.92;2.60;;;;;;;11.63;69.13;99969.94;344458;28;1281;-70
2023/01/07 01:04:54;;;;;;;3.08;2.53;;;;;;;11.51;69.80;99976.38;344332;28;1485;-71
2023/01/07 01:05:07;;;;;;;2.25;1.85;;;;;;;11.46;70.33;99973.94;344035;28;1190;-73
2023/01/07 01:05:21;;;;;;;2.97;2.60;;;;;;;11.52;70.23;99978.13;344856;28;1192;-69